WLF9634 EGLL-EKCH
Flight info
| Callsign | WLF9634 |
|---|---|
| Flight time | 1h 30m |
| Altitude | 35000 |
| Route | BPK Q295 SOMVA DCT MAVAS DCT ROCZO DCT DOSUR P729 TUDLO |
| Aircraft | B738/M-SDE2E3FGHIRWXY/LB1 |
Departure
| Time | 2026-05-04 16:39 |
|---|---|
| Airport | London Heathrow Airport (EGLL) |
Arrival
| Time | 2026-05-04 18:09 |
|---|---|
| Airport | Copenhagen Kastrup Airport (EKCH) |
| Time | Latitude | Longitude | Altitude | Speed | Heading |
|---|---|---|---|---|---|
| 2026-05-04 15:48 | 51.47315 | -0.48609 | 89 ft | 0 kts | 270° |
| 2026-05-04 16:26 | 51.47315 | -0.48601 | 88 ft | 3 kts | 270° |
| 2026-05-04 16:26 | 51.47307 | -0.48486 | 89 ft | 4 kts | 320° |
| 2026-05-04 16:27 | 51.47283 | -0.48476 | 87 ft | 2 kts | 360° |
| 2026-05-04 16:29 | 51.47320 | -0.48476 | 85 ft | 6 kts | 0° |
| 2026-05-04 16:30 | 51.47509 | -0.48479 | 85 ft | 14 kts | 1° |
| 2026-05-04 16:31 | 51.47579 | -0.48240 | 88 ft | 13 kts | 89° |
| 2026-05-04 16:31 | 51.47580 | -0.47813 | 89 ft | 14 kts | 90° |
| 2026-05-04 16:32 | 51.47583 | -0.47209 | 87 ft | 21 kts | 90° |
| 2026-05-04 16:33 | 51.47591 | -0.46722 | 85 ft | 20 kts | 88° |
| 2026-05-04 16:33 | 51.47594 | -0.46281 | 89 ft | 19 kts | 90° |
| 2026-05-04 16:34 | 51.47595 | -0.45872 | 87 ft | 18 kts | 89° |
| 2026-05-04 16:34 | 51.47595 | -0.45676 | 86 ft | 17 kts | 89° |
| 2026-05-04 16:35 | 51.47597 | -0.45131 | 85 ft | 15 kts | 89° |
| 2026-05-04 16:35 | 51.47597 | -0.44782 | 85 ft | 13 kts | 89° |
| 2026-05-04 16:36 | 51.47599 | -0.44636 | 85 ft | 13 kts | 89° |
| 2026-05-04 16:36 | 51.47595 | -0.44305 | 88 ft | 20 kts | 95° |
| 2026-05-04 16:37 | 51.47592 | -0.43853 | 85 ft | 20 kts | 90° |
| 2026-05-04 16:37 | 51.47593 | -0.43650 | 85 ft | 16 kts | 90° |
| 2026-05-04 16:37 | 51.47728 | -0.43423 | 90 ft | 15 kts | 351° |
| 2026-05-04 16:38 | 51.47767 | -0.43912 | 87 ft | 60 kts | 270° |
| 2026-05-04 16:39 | 51.47696 | -0.48756 | 756 ft | 184 kts | 268° |
| 2026-05-04 16:39 | 51.47609 | -0.52775 | 2426 ft | 194 kts | 267° |
| 2026-05-04 16:40 | 51.48561 | -0.57320 | 3121 ft | 231 kts | 297° |
| 2026-05-04 16:40 | 51.50075 | -0.62009 | 4234 ft | 245 kts | 298° |
| 2026-05-04 16:41 | 51.52778 | -0.65380 | 5248 ft | 266 kts | 354° |
| 2026-05-04 16:41 | 51.57657 | -0.62049 | 5889 ft | 272 kts | 54° |
| 2026-05-04 16:42 | 51.61012 | -0.54674 | 5879 ft | 272 kts | 52° |
| 2026-05-04 16:43 | 51.63133 | -0.49657 | 5875 ft | 271 kts | 62° |
| 2026-05-04 16:43 | 51.64760 | -0.44269 | 5874 ft | 271 kts | 64° |
| 2026-05-04 16:43 | 51.65579 | -0.41519 | 5871 ft | 271 kts | 63° |
| 2026-05-04 16:44 | 51.68904 | -0.30593 | 5868 ft | 272 kts | 63° |
| 2026-05-04 16:45 | 51.70580 | -0.25129 | 5882 ft | 272 kts | 63° |
| 2026-05-04 16:46 | 51.73093 | -0.16939 | 5882 ft | 272 kts | 63° |
| 2026-05-04 16:46 | 51.74756 | -0.11499 | 5879 ft | 272 kts | 64° |
| 2026-05-04 16:47 | 51.75510 | -0.05451 | 6663 ft | 278 kts | 83° |
| 2026-05-04 16:47 | 51.75974 | 0.00780 | 8337 ft | 283 kts | 83° |
| 2026-05-04 16:48 | 51.76760 | 0.10576 | 10423 ft | 301 kts | 83° |
| 2026-05-04 16:48 | 51.77045 | 0.14085 | 10691 ft | 324 kts | 83° |
| 2026-05-04 16:49 | 51.77660 | 0.21718 | 11306 ft | 359 kts | 83° |
| 2026-05-04 16:49 | 51.78282 | 0.29800 | 12745 ft | 366 kts | 83° |
| 2026-05-04 16:50 | 51.78945 | 0.38007 | 14187 ft | 371 kts | 83° |
| 2026-05-04 16:50 | 51.79614 | 0.46339 | 15485 ft | 377 kts | 83° |
| 2026-05-04 16:51 | 51.80289 | 0.54829 | 16742 ft | 384 kts | 83° |
| 2026-05-04 16:51 | 51.80626 | 0.59119 | 17387 ft | 385 kts | 83° |
| 2026-05-04 16:51 | 51.81661 | 0.67675 | 18532 ft | 393 kts | 69° |
| 2026-05-04 16:52 | 51.83849 | 0.75802 | 19537 ft | 402 kts | 66° |
| 2026-05-04 16:52 | 51.84983 | 0.79989 | 20006 ft | 407 kts | 67° |
| 2026-05-04 16:53 | 51.87211 | 0.88496 | 20962 ft | 415 kts | 68° |
| 2026-05-04 16:53 | 51.90578 | 1.01650 | 22281 ft | 427 kts | 68° |
| 2026-05-04 16:54 | 51.91720 | 1.06133 | 22680 ft | 432 kts | 68° |
| 2026-05-04 16:55 | 51.96353 | 1.24372 | 24259 ft | 446 kts | 68° |
| 2026-05-04 16:55 | 51.98721 | 1.33749 | 25037 ft | 451 kts | 69° |
| 2026-05-04 16:56 | 52.01107 | 1.43232 | 25816 ft | 455 kts | 69° |
| 2026-05-04 16:56 | 52.04698 | 1.57580 | 26821 ft | 463 kts | 69° |
| 2026-05-04 16:57 | 52.05912 | 1.62455 | 27151 ft | 466 kts | 69° |
| 2026-05-04 16:57 | 52.08347 | 1.72266 | 27767 ft | 470 kts | 70° |
| 2026-05-04 16:58 | 52.12032 | 1.87189 | 28609 ft | 477 kts | 70° |
| 2026-05-04 16:58 | 52.13267 | 1.92215 | 28893 ft | 479 kts | 70° |
| 2026-05-04 16:59 | 52.15745 | 2.02329 | 29424 ft | 483 kts | 70° |
| 2026-05-04 17:00 | 52.20711 | 2.22740 | 30606 ft | 484 kts | 71° |
| 2026-05-04 17:00 | 52.24388 | 2.37974 | 31657 ft | 479 kts | 71° |
| 2026-05-04 17:01 | 52.26816 | 2.48106 | 32251 ft | 478 kts | 71° |
| 2026-05-04 17:01 | 52.29224 | 2.58183 | 32936 ft | 474 kts | 71° |
| 2026-05-04 17:02 | 52.31489 | 2.68291 | 33455 ft | 473 kts | 75° |
| 2026-05-04 17:02 | 52.33301 | 2.78620 | 33956 ft | 471 kts | 77° |
| 2026-05-04 17:03 | 52.34174 | 2.83788 | 34198 ft | 471 kts | 76° |
| 2026-05-04 17:03 | 52.35047 | 2.88882 | 34423 ft | 471 kts | 76° |
| 2026-05-04 17:03 | 52.36847 | 2.99199 | 34863 ft | 471 kts | 76° |
| 2026-05-04 17:04 | 52.38659 | 3.09547 | 35015 ft | 474 kts | 76° |
| 2026-05-04 17:04 | 52.40992 | 3.19652 | 35020 ft | 477 kts | 61° |
| 2026-05-04 17:05 | 52.48352 | 3.37719 | 35017 ft | 475 kts | 57° |
| 2026-05-04 17:06 | 52.53852 | 3.51250 | 35021 ft | 476 kts | 58° |
| 2026-05-04 17:07 | 52.58085 | 3.61825 | 35022 ft | 477 kts | 58° |
| 2026-05-04 17:07 | 52.62936 | 3.74013 | 35023 ft | 479 kts | 58° |
| 2026-05-04 17:08 | 52.68418 | 3.87847 | 35019 ft | 481 kts | 58° |
| 2026-05-04 17:09 | 52.72072 | 3.97110 | 35027 ft | 482 kts | 58° |
| 2026-05-04 17:09 | 52.75722 | 4.06392 | 35020 ft | 483 kts | 58° |
| 2026-05-04 17:10 | 52.84827 | 4.29699 | 35020 ft | 484 kts | 58° |
| 2026-05-04 17:11 | 52.87857 | 4.37506 | 35020 ft | 484 kts | 58° |
| 2026-05-04 17:12 | 52.93304 | 4.51602 | 35016 ft | 483 kts | 58° |
| 2026-05-04 17:13 | 53.02311 | 4.75078 | 35015 ft | 481 kts | 58° |
| 2026-05-04 17:14 | 53.09432 | 4.93781 | 35019 ft | 479 kts | 57° |
| 2026-05-04 17:15 | 53.15186 | 5.07418 | 35018 ft | 478 kts | 54° |
| 2026-05-04 17:16 | 53.22948 | 5.25472 | 35023 ft | 480 kts | 54° |
| 2026-05-04 17:17 | 53.30617 | 5.43709 | 35031 ft | 482 kts | 54° |
| 2026-05-04 17:18 | 53.38305 | 5.62142 | 35029 ft | 483 kts | 54° |
| 2026-05-04 17:19 | 53.45994 | 5.80704 | 35028 ft | 484 kts | 54° |
| 2026-05-04 17:20 | 53.53640 | 5.99295 | 35017 ft | 484 kts | 54° |
| 2026-05-04 17:20 | 53.59349 | 6.13270 | 35019 ft | 482 kts | 54° |
| 2026-05-04 17:21 | 53.66891 | 6.31847 | 35020 ft | 481 kts | 55° |
| 2026-05-04 17:22 | 53.70661 | 6.41186 | 35021 ft | 481 kts | 55° |
| 2026-05-04 17:23 | 53.78178 | 6.59910 | 35015 ft | 481 kts | 55° |
| 2026-05-04 17:24 | 53.83783 | 6.73965 | 35002 ft | 483 kts | 55° |
| 2026-05-04 17:25 | 53.91302 | 6.92945 | 34995 ft | 486 kts | 55° |
| 2026-05-04 17:26 | 53.98841 | 7.12118 | 35000 ft | 490 kts | 56° |
| 2026-05-04 17:27 | 54.08237 | 7.36223 | 35003 ft | 490 kts | 55° |
| 2026-05-04 17:28 | 54.15729 | 7.55612 | 35000 ft | 488 kts | 56° |
| 2026-05-04 17:29 | 54.26852 | 7.84677 | 35006 ft | 488 kts | 56° |
| 2026-05-04 17:31 | 54.36078 | 8.09040 | 35003 ft | 489 kts | 56° |
| 2026-05-04 17:32 | 54.44964 | 8.34022 | 35017 ft | 491 kts | 61° |
| 2026-05-04 17:33 | 54.51453 | 8.54699 | 35008 ft | 491 kts | 60° |
| 2026-05-04 17:34 | 54.57986 | 8.75256 | 35000 ft | 489 kts | 60° |
| 2026-05-04 17:35 | 54.66092 | 9.00947 | 34982 ft | 486 kts | 60° |
| 2026-05-04 17:36 | 54.69304 | 9.11209 | 34999 ft | 486 kts | 60° |
| 2026-05-04 17:36 | 54.72508 | 9.21494 | 34978 ft | 486 kts | 60° |
| 2026-05-04 17:37 | 54.75720 | 9.31848 | 34516 ft | 492 kts | 60° |
| 2026-05-04 17:37 | 54.77311 | 9.36990 | 34107 ft | 488 kts | 60° |
| 2026-05-04 17:37 | 54.78903 | 9.42149 | 33670 ft | 484 kts | 60° |
| 2026-05-04 17:37 | 54.80484 | 9.47284 | 33235 ft | 480 kts | 60° |
| 2026-05-04 17:38 | 54.82043 | 9.52360 | 32809 ft | 476 kts | 61° |
| 2026-05-04 17:38 | 54.83593 | 9.57416 | 32378 ft | 473 kts | 60° |
| 2026-05-04 17:38 | 54.85134 | 9.62453 | 31951 ft | 470 kts | 61° |
| 2026-05-04 17:38 | 54.86660 | 9.67450 | 31533 ft | 467 kts | 61° |
| 2026-05-04 17:39 | 54.89677 | 9.77365 | 30698 ft | 460 kts | 61° |
| 2026-05-04 17:39 | 54.91168 | 9.82278 | 30291 ft | 457 kts | 61° |
| 2026-05-04 17:39 | 54.92646 | 9.87156 | 29880 ft | 454 kts | 61° |
| 2026-05-04 17:40 | 54.94110 | 9.91999 | 29465 ft | 451 kts | 61° |
| 2026-05-04 17:40 | 54.95549 | 9.96767 | 29048 ft | 448 kts | 61° |
| 2026-05-04 17:40 | 54.96989 | 10.01553 | 28624 ft | 445 kts | 61° |
| 2026-05-04 17:40 | 54.98421 | 10.06322 | 28206 ft | 442 kts | 61° |
| 2026-05-04 17:41 | 54.99840 | 10.11057 | 27783 ft | 440 kts | 61° |
| 2026-05-04 17:41 | 55.01248 | 10.15766 | 27361 ft | 437 kts | 61° |
| 2026-05-04 17:41 | 55.02646 | 10.20452 | 26948 ft | 434 kts | 61° |
| 2026-05-04 17:41 | 55.04035 | 10.25114 | 26535 ft | 431 kts | 61° |
| 2026-05-04 17:42 | 55.05412 | 10.29742 | 26122 ft | 429 kts | 61° |
| 2026-05-04 17:42 | 55.06780 | 10.34360 | 25678 ft | 428 kts | 61° |
| 2026-05-04 17:42 | 55.08151 | 10.38987 | 25205 ft | 428 kts | 61° |
| 2026-05-04 17:42 | 55.09516 | 10.43599 | 24736 ft | 428 kts | 61° |
| 2026-05-04 17:43 | 55.10864 | 10.48167 | 24268 ft | 427 kts | 61° |
| 2026-05-04 17:43 | 55.12221 | 10.52774 | 23797 ft | 426 kts | 61° |
| 2026-05-04 17:43 | 55.13575 | 10.57380 | 23327 ft | 425 kts | 61° |
| 2026-05-04 17:43 | 55.14924 | 10.61979 | 22856 ft | 424 kts | 61° |
| 2026-05-04 17:44 | 55.16266 | 10.66562 | 22380 ft | 423 kts | 61° |
| 2026-05-04 17:44 | 55.17604 | 10.71144 | 21913 ft | 422 kts | 61° |
| 2026-05-04 17:44 | 55.18938 | 10.75717 | 21424 ft | 420 kts | 61° |
| 2026-05-04 17:44 | 55.20263 | 10.80272 | 20961 ft | 419 kts | 61° |
| 2026-05-04 17:45 | 55.21583 | 10.84814 | 20487 ft | 418 kts | 61° |
| 2026-05-04 17:45 | 55.22880 | 10.89290 | 20019 ft | 416 kts | 61° |
| 2026-05-04 17:45 | 55.24188 | 10.93809 | 19546 ft | 415 kts | 62° |
| 2026-05-04 17:45 | 55.25487 | 10.98311 | 19058 ft | 413 kts | 62° |
| 2026-05-04 17:46 | 55.26786 | 11.02819 | 18597 ft | 412 kts | 62° |
| 2026-05-04 17:46 | 55.28073 | 11.07292 | 18127 ft | 410 kts | 62° |
| 2026-05-04 17:46 | 55.29357 | 11.11763 | 17647 ft | 409 kts | 62° |
| 2026-05-04 17:46 | 55.30629 | 11.16201 | 17170 ft | 403 kts | 62° |
| 2026-05-04 17:47 | 55.31873 | 11.20549 | 16681 ft | 394 kts | 62° |
| 2026-05-04 17:47 | 55.33088 | 11.24805 | 16200 ft | 385 kts | 62° |
| 2026-05-04 17:47 | 55.34273 | 11.28966 | 15723 ft | 378 kts | 62° |
| 2026-05-04 17:47 | 55.35437 | 11.33056 | 15253 ft | 371 kts | 62° |
| 2026-05-04 17:48 | 55.36580 | 11.37079 | 14761 ft | 364 kts | 62° |
| 2026-05-04 17:48 | 55.37689 | 11.40991 | 14293 ft | 359 kts | 62° |
| 2026-05-04 17:48 | 55.38795 | 11.44900 | 13814 ft | 354 kts | 62° |
| 2026-05-04 17:48 | 55.39883 | 11.48753 | 13340 ft | 349 kts | 62° |
| 2026-05-04 17:49 | 55.40958 | 11.52559 | 12904 ft | 343 kts | 62° |
| 2026-05-04 17:49 | 55.42003 | 11.56267 | 12537 ft | 335 kts | 62° |
| 2026-05-04 17:49 | 55.43032 | 11.59927 | 12145 ft | 329 kts | 62° |
| 2026-05-04 17:49 | 55.44100 | 11.63341 | 11848 ft | 317 kts | 49° |
| 2026-05-04 17:50 | 55.45632 | 11.65988 | 11604 ft | 302 kts | 37° |
| 2026-05-04 17:50 | 55.47198 | 11.68377 | 11332 ft | 294 kts | 36° |
| 2026-05-04 17:50 | 55.48730 | 11.70723 | 11085 ft | 290 kts | 37° |
| 2026-05-04 17:50 | 55.50246 | 11.73058 | 10834 ft | 287 kts | 37° |
| 2026-05-04 17:51 | 55.51740 | 11.75376 | 10587 ft | 286 kts | 37° |
| 2026-05-04 17:51 | 55.53227 | 11.77691 | 10338 ft | 284 kts | 37° |
| 2026-05-04 17:51 | 55.54703 | 11.80000 | 10091 ft | 282 kts | 37° |
| 2026-05-04 17:51 | 55.56167 | 11.82297 | 9847 ft | 281 kts | 37° |
| 2026-05-04 17:52 | 55.57632 | 11.84598 | 9596 ft | 281 kts | 37° |
| 2026-05-04 17:52 | 55.59090 | 11.86893 | 9346 ft | 280 kts | 37° |
| 2026-05-04 17:52 | 55.60543 | 11.89185 | 9100 ft | 279 kts | 37° |
| 2026-05-04 17:52 | 55.61992 | 11.91471 | 8857 ft | 278 kts | 37° |
| 2026-05-04 17:53 | 55.63416 | 11.93720 | 8612 ft | 278 kts | 37° |
| 2026-05-04 17:53 | 55.64859 | 11.96002 | 8356 ft | 278 kts | 37° |
| 2026-05-04 17:53 | 55.66299 | 11.98281 | 8106 ft | 277 kts | 37° |
| 2026-05-04 17:53 | 55.67735 | 12.00555 | 7867 ft | 276 kts | 37° |
| 2026-05-04 17:54 | 55.69163 | 12.02822 | 7611 ft | 275 kts | 37° |
| 2026-05-04 17:54 | 55.70587 | 12.05083 | 7359 ft | 275 kts | 37° |
| 2026-05-04 17:54 | 55.72019 | 12.07355 | 7122 ft | 275 kts | 38° |
| 2026-05-04 17:54 | 55.73166 | 12.10076 | 6833 ft | 282 kts | 67° |
| 2026-05-04 17:55 | 55.73436 | 12.13495 | 6609 ft | 281 kts | 93° |
| 2026-05-04 17:55 | 55.73228 | 12.16919 | 6361 ft | 278 kts | 97° |
| 2026-05-04 17:55 | 55.72996 | 12.20320 | 6116 ft | 276 kts | 96° |
| 2026-05-04 17:55 | 55.72770 | 12.23700 | 5864 ft | 275 kts | 96° |
| 2026-05-04 17:56 | 55.72560 | 12.27026 | 5616 ft | 274 kts | 96° |
| 2026-05-04 17:56 | 55.72350 | 12.30370 | 5365 ft | 272 kts | 96° |
| 2026-05-04 17:56 | 55.72140 | 12.33694 | 5119 ft | 270 kts | 96° |
| 2026-05-04 17:56 | 55.71934 | 12.37002 | 4871 ft | 269 kts | 96° |
| 2026-05-04 17:57 | 55.71726 | 12.40297 | 4617 ft | 267 kts | 96° |
| 2026-05-04 17:57 | 55.71520 | 12.43566 | 4362 ft | 266 kts | 96° |
| 2026-05-04 17:57 | 55.71313 | 12.46824 | 4114 ft | 265 kts | 96° |
| 2026-05-04 17:57 | 55.71140 | 12.50059 | 4026 ft | 264 kts | 88° |
| 2026-05-04 17:58 | 55.71351 | 12.52161 | 3993 ft | 260 kts | 65° |
| 2026-05-04 17:58 | 55.72422 | 12.55933 | 3985 ft | 258 kts | 59° |
| 2026-05-04 17:58 | 55.73242 | 12.58774 | 3983 ft | 258 kts | 60° |
| 2026-05-04 17:58 | 55.74059 | 12.61616 | 3988 ft | 259 kts | 59° |
| 2026-05-04 17:59 | 55.74925 | 12.64409 | 3981 ft | 257 kts | 48° |
| 2026-05-04 17:59 | 55.75751 | 12.65923 | 3987 ft | 251 kts | 36° |
| 2026-05-04 17:59 | 55.78417 | 12.69917 | 4001 ft | 253 kts | 36° |
| 2026-05-04 18:00 | 55.79754 | 12.71965 | 4003 ft | 254 kts | 37° |
| 2026-05-04 18:00 | 55.81090 | 12.74036 | 3992 ft | 255 kts | 37° |
| 2026-05-04 18:00 | 55.82428 | 12.76122 | 3994 ft | 255 kts | 37° |
| 2026-05-04 18:00 | 55.83758 | 12.78198 | 4001 ft | 255 kts | 37° |
| 2026-05-04 18:01 | 55.85081 | 12.80313 | 3985 ft | 257 kts | 44° |
| 2026-05-04 18:01 | 55.86029 | 12.83039 | 3997 ft | 260 kts | 61° |
| 2026-05-04 18:01 | 55.86784 | 12.85939 | 3992 ft | 262 kts | 63° |
| 2026-05-04 18:02 | 55.88246 | 12.91892 | 3980 ft | 263 kts | 71° |
| 2026-05-04 18:02 | 55.88354 | 12.95128 | 3984 ft | 264 kts | 102° |
| 2026-05-04 18:02 | 55.87575 | 12.98050 | 3990 ft | 260 kts | 134° |
| 2026-05-04 18:02 | 55.86126 | 12.99811 | 3991 ft | 251 kts | 170° |
| 2026-05-04 18:03 | 55.84468 | 12.99694 | 3991 ft | 234 kts | 209° |
| 2026-05-04 18:03 | 55.83132 | 12.98102 | 4002 ft | 234 kts | 221° |
| 2026-05-04 18:03 | 55.81812 | 12.96368 | 3998 ft | 235 kts | 221° |
| 2026-05-04 18:03 | 55.80542 | 12.94614 | 3982 ft | 233 kts | 223° |
| 2026-05-04 18:04 | 55.79291 | 12.92774 | 3986 ft | 232 kts | 225° |
| 2026-05-04 18:04 | 55.78074 | 12.90923 | 3977 ft | 224 kts | 226° |
| 2026-05-04 18:04 | 55.75831 | 12.87348 | 3446 ft | 213 kts | 226° |
| 2026-05-04 18:05 | 55.74727 | 12.85627 | 3150 ft | 208 kts | 225° |
| 2026-05-04 18:05 | 55.73661 | 12.83978 | 2875 ft | 203 kts | 225° |
| 2026-05-04 18:05 | 55.72612 | 12.82360 | 2609 ft | 195 kts | 225° |
| 2026-05-04 18:05 | 55.71624 | 12.80831 | 2369 ft | 181 kts | 225° |
| 2026-05-04 18:06 | 55.69837 | 12.78065 | 1892 ft | 161 kts | 225° |
| 2026-05-04 18:06 | 55.69004 | 12.76774 | 1696 ft | 158 kts | 225° |
| 2026-05-04 18:06 | 55.68173 | 12.75481 | 1486 ft | 160 kts | 225° |
| 2026-05-04 18:07 | 55.67328 | 12.74177 | 1283 ft | 161 kts | 224° |
| 2026-05-04 18:07 | 55.66509 | 12.72907 | 1115 ft | 152 kts | 225° |
| 2026-05-04 18:07 | 55.65718 | 12.71679 | 1118 ft | 152 kts | 224° |
| 2026-05-04 18:07 | 55.64918 | 12.70429 | 891 ft | 155 kts | 225° |
| 2026-05-04 18:08 | 55.64104 | 12.69185 | 556 ft | 153 kts | 224° |
| 2026-05-04 18:08 | 55.63318 | 12.67950 | 253 ft | 149 kts | 222° |
| 2026-05-04 18:08 | 55.62554 | 12.66780 | 71 ft | 142 kts | 223° |
| 2026-05-04 18:08 | 55.61853 | 12.65696 | 26 ft | 117 kts | 214° |
| 2026-05-04 18:09 | 55.61246 | 12.64562 | 24 ft | 36 kts | 254° |
| 2026-05-04 18:09 | 55.61196 | 12.64288 | 23 ft | 6 kts | 252° |
| 2026-05-04 18:10 | 55.61192 | 12.64215 | 23 ft | 6 kts | 277° |
| 2026-05-04 18:10 | 55.61192 | 12.64211 | 24 ft | 0 kts | 278° |
| 2026-05-04 18:10 | 55.61194 | 12.64199 | 25 ft | 6 kts | 285° |
| 2026-05-04 18:10 | 55.61240 | 12.64124 | 24 ft | 10 kts | 353° |
| 2026-05-04 18:11 | 55.61307 | 12.64147 | 23 ft | 10 kts | 22° |
| 2026-05-04 18:11 | 55.61366 | 12.64207 | 24 ft | 10 kts | 32° |
| 2026-05-04 18:11 | 55.61432 | 12.64285 | 23 ft | 14 kts | 33° |
| 2026-05-04 18:11 | 55.61531 | 12.64399 | 24 ft | 20 kts | 33° |
| 2026-05-04 18:12 | 55.61651 | 12.64539 | 24 ft | 21 kts | 33° |
| 2026-05-04 18:12 | 55.61785 | 12.64690 | 25 ft | 23 kts | 33° |
| 2026-05-04 18:12 | 55.61913 | 12.64838 | 24 ft | 22 kts | 33° |
| 2026-05-04 18:12 | 55.62045 | 12.64992 | 25 ft | 23 kts | 33° |
| 2026-05-04 18:13 | 55.62093 | 12.65047 | 23 ft | 6 kts | 33° |
| 2026-05-04 18:13 | 55.62112 | 12.65069 | 25 ft | 1 kts | 33° |
| 2026-05-04 18:13 | 55.62158 | 12.65121 | 24 ft | 10 kts | 33° |
| 2026-05-04 18:14 | 55.62220 | 12.65156 | 25 ft | 10 kts | 351° |
| 2026-05-04 18:14 | 55.62272 | 12.65089 | 24 ft | 9 kts | 306° |
| 2026-05-04 18:14 | 55.62308 | 12.64995 | 25 ft | 9 kts | 301° |
| 2026-05-04 18:15 | 55.62377 | 12.64815 | 25 ft | 9 kts | 311° |
| 2026-05-04 18:15 | 55.62484 | 12.64799 | 23 ft | 8 kts | 46° |
| 2026-05-04 18:15 | 55.62497 | 12.64878 | 24 ft | 6 kts | 90° |
| 2026-05-04 18:16 | 55.62497 | 12.64891 | 25 ft | 3 kts | 81° |
| 2026-05-04 18:16 | 55.62497 | 12.64892 | 23 ft | 0 kts | 78° |